Time;durP1;ratioP1;P1;durP2;ratioP2;P2;SDS_P1;SDS_P2;PMS_P1;PMS_P2;Temp;Humidity;BMP_temperature;BMP_pressure;BME280_temperature;BME280_humidity;BME280_pressure;Samples;Min_cycle;Max_cycle;Signal;HPM_P1;HPM_P2
2024/03/12 00:00:58;;;;;;;23.35;19.10;;;11.50;79.70;;;;;;4993940;28;20101;-34
2024/03/12 00:03:27;;;;;;;23.92;19.15;;;11.50;79.70;;;;;;5000144;28;20029;-34
2024/03/12 00:05:59;;;;;;;23.73;18.73;;;11.50;79.70;;;;;;4993843;28;20097;-37
2024/03/12 00:08:27;;;;;;;25.20;20.23;;;11.50;79.70;;;;;;4994642;28;20050;-36
2024/03/12 00:10:54;;;;;;;24.42;19.50;;;11.50;79.70;;;;;;4986378;28;20052;-36
2024/03/12 00:13:20;;;;;;;23.65;19.83;;;11.50;79.70;;;;;;4992823;28;20035;-34
2024/03/12 00:15:46;;;;;;;26.77;21.15;;;11.50;79.70;;;;;;4992331;28;20034;-31
2024/03/12 00:18:12;;;;;;;23.85;19.65;;;11.50;79.70;;;;;;4991966;28;20507;-35
2024/03/12 00:20:39;;;;;;;24.15;19.75;;;11.50;79.70;;;;;;5000617;28;20034;-36
2024/03/12 00:23:07;;;;;;;24.45;20.27;;;11.50;79.70;;;;;;4998849;28;20050;-34
2024/03/12 00:25:33;;;;;;;25.33;20.02;;;11.50;79.70;;;;;;4990646;28;20039;-31
2024/03/12 00:28:00;;;;;;;27.02;21.30;;;11.50;79.70;;;;;;4994252;28;20034;-31
2024/03/12 00:30:27;;;;;;;26.35;20.70;;;11.50;79.70;;;;;;4993120;28;20038;-34
2024/03/12 00:32:54;;;;;;;26.25;20.25;;;11.50;79.70;;;;;;4995859;28;20019;-36
2024/03/12 00:35:23;;;;;;;25.42;19.85;;;11.50;79.70;;;;;;4997861;28;20030;-34
2024/03/12 00:37:52;;;;;;;24.42;20.15;;;11.50;79.70;;;;;;4990154;28;20019;-36
2024/03/12 00:40:20;;;;;;;24.15;19.35;;;11.50;79.70;;;;;;5000646;28;20037;-32
2024/03/12 00:42:46;;;;;;;24.48;20.27;;;11.50;79.70;;;;;;4990365;28;20025;-37
2024/03/12 00:45:13;;;;;;;25.98;20.20;;;11.50;79.70;;;;;;5004254;28;20038;-33
2024/03/12 00:47:43;;;;;;;25.90;19.50;;;11.50;79.70;;;;;;5001377;28;20041;-35
2024/03/12 00:50:12;;;;;;;26.33;20.55;;;11.50;79.70;;;;;;4993560;28;20026;-38
2024/03/12 00:52:40;;;;;;;26.02;20.38;;;11.50;79.70;;;;;;4999789;28;20038;-36
2024/03/12 00:55:09;;;;;;;25.42;20.38;;;11.50;79.70;;;;;;5002688;28;20053;-37
2024/03/12 00:57:38;;;;;;;24.75;19.70;;;11.50;79.70;;;;;;4996153;28;20501;-33
2024/03/12 01:00:16;;;;;;;26.10;20.05;;;11.50;79.70;;;;;;4995287;28;20111;-37
2024/03/12 01:02:44;;;;;;;26.77;20.50;;;11.50;79.70;;;;;;4989956;28;20054;-33
2024/03/12 01:05:12;;;;;;;25.83;20.60;;;11.50;79.70;;;;;;5000376;28;20025;-34
2024/03/12 01:07:38;;;;;;;25.67;20.63;;;11.50;79.70;;;;;;4985733;28;20443;-33
2024/03/12 01:10:05;;;;;;;25.38;20.83;;;11.50;79.70;;;;;;4992663;28;20044;-36
2024/03/12 01:12:32;;;;;;;25.52;20.17;;;11.50;79.70;;;;;;4996401;28;20031;-33
2024/03/12 01:14:58;;;;;;;27.13;20.15;;;11.40;79.60;;;;;;5001647;28;20030;-32
2024/03/12 01:17:24;;;;;;;27.63;20.83;;;11.50;79.70;;;;;;4993141;28;20077;-34
2024/03/12 01:19:49;;;;;;;26.65;20.42;;;11.40;79.70;;;;;;4998529;28;20018;-36
2024/03/12 01:22:15;;;;;;;27.63;21.17;;;11.50;79.70;;;;;;5000530;28;20034;-37
2024/03/12 01:24:41;;;;;;;25.25;20.40;;;11.50;79.70;;;;;;5001437;28;20048;-33
2024/03/12 01:27:07;;;;;;;27.50;20.52;;;11.50;79.70;;;;;;4977687;28;20027;-34
2024/03/12 01:29:33;;;;;;;25.55;20.25;;;11.50;79.70;;;;;;4991968;28;20038;-32
2024/03/12 01:31:59;;;;;;;25.63;19.70;;;11.50;79.70;;;;;;4986320;28;20022;-37
2024/03/12 01:34:25;;;;;;;28.02;21.02;;;11.50;79.70;;;;;;5002378;28;20383;-36
2024/03/12 01:36:53;;;;;;;27.77;21.60;;;11.50;79.70;;;;;;5002435;28;20026;-37
2024/03/12 01:39:25;;;;;;;29.45;21.58;;;11.50;79.70;;;;;;4985842;28;20475;-34
2024/03/12 01:41:55;;;;;;;26.20;20.08;;;11.40;79.70;;;;;;4999154;28;20153;-37
2024/03/12 01:44:21;;;;;;;28.00;21.55;;;11.50;79.70;;;;;;5001301;28;20046;-33
2024/03/12 01:46:48;;;;;;;27.40;21.23;;;11.50;79.70;;;;;;4999314;28;20026;-34
2024/03/12 01:49:15;;;;;;;31.23;21.48;;;11.50;79.70;;;;;;4992034;28;20052;-35
2024/03/12 01:51:44;;;;;;;26.38;20.98;;;11.50;79.70;;;;;;4993686;28;20068;-36
2024/03/12 01:54:11;;;;;;;26.63;20.15;;;11.50;79.70;;;;;;5010100;28;20419;-32
2024/03/12 01:56:37;;;;;;;27.42;21.15;;;11.50;79.70;;;;;;4994357;28;20110;-37
2024/03/12 01:59:03;;;;;;;27.15;20.88;;;11.50;79.70;;;;;;4999436;28;20054;-37
2024/03/12 02:01:28;;;;;;;27.90;21.85;;;11.50;79.70;;;;;;4996517;28;20103;-33
2024/03/12 02:03:54;;;;;;;28.75;21.23;;;11.50;79.80;;;;;;4978043;28;20030;-35
2024/03/12 02:06:23;;;;;;;30.80;21.50;;;11.40;79.70;;;;;;5005949;28;20033;-35
2024/03/12 02:08:53;;;;;;;27.95;20.67;;;11.50;79.80;;;;;;4993006;28;20073;-38
2024/03/12 02:11:19;;;;;;;30.15;21.45;;;11.50;79.80;;;;;;4996819;28;20034;-33
2024/03/12 02:13:45;;;;;;;26.40;21.02;;;11.40;79.70;;;;;;4999354;28;20398;-38
2024/03/12 02:16:12;;;;;;;29.25;21.45;;;11.40;79.70;;;;;;5003060;28;20026;-39
2024/03/12 02:18:38;;;;;;;33.33;22.33;;;11.50;79.80;;;;;;4997882;28;20018;-34
2024/03/12 02:21:04;;;;;;;28.55;20.80;;;11.50;79.80;;;;;;4991395;28;20097;-33
2024/03/12 02:23:37;;;;;;;28.83;20.73;;;11.50;79.70;;;;;;4995245;28;20057;-36
2024/03/12 02:26:04;;;;;;;28.77;21.73;;;11.50;79.80;;;;;;4994059;28;20481;-35
2024/03/12 02:28:30;;;;;;;33.72;22.10;;;11.40;79.70;;;;;;4998919;28;20041;-36
2024/03/12 02:30:56;;;;;;;29.48;21.45;;;11.50;79.70;;;;;;4992226;28;20053;-34
2024/03/12 02:33:22;;;;;;;32.80;22.33;;;11.40;79.70;;;;;;4996990;28;20098;-35
2024/03/12 02:35:48;;;;;;;30.35;22.05;;;11.50;79.80;;;;;;4996855;28;20062;-36
2024/03/12 02:38:15;;;;;;;27.23;20.98;;;11.50;79.70;;;;;;4991899;28;20089;-35
2024/03/12 02:40:41;;;;;;;30.02;21.75;;;11.40;79.70;;;;;;4992624;28;20030;-38
2024/03/12 02:43:07;;;;;;;31.02;22.60;;;11.40;79.70;;;;;;4994884;28;20065;-35
2024/03/12 02:45:33;;;;;;;29.73;21.70;;;11.40;79.70;;;;;;5001265;28;20042;-36
2024/03/12 02:47:59;;;;;;;27.45;20.98;;;11.40;79.70;;;;;;4992756;28;20545;-33
2024/03/12 02:50:26;;;;;;;27.83;21.10;;;11.40;79.70;;;;;;4999506;28;20145;-39
2024/03/12 02:52:52;;;;;;;28.58;21.27;;;11.50;79.80;;;;;;5000834;28;20026;-37
2024/03/12 02:55:19;;;;;;;28.40;21.00;;;11.40;79.70;;;;;;4987308;28;20040;-38
2024/03/12 02:57:45;;;;;;;28.58;21.17;;;11.40;79.70;;;;;;4994623;28;20390;-36
2024/03/12 03:00:11;;;;;;;27.30;21.55;;;11.40;79.70;;;;;;4971542;28;20101;-35
2024/03/12 03:02:37;;;;;;;27.40;21.10;;;11.40;79.70;;;;;;5005070;28;20037;-38
2024/03/12 03:05:06;;;;;;;27.00;20.95;;;11.40;79.70;;;;;;4991545;28;20065;-31
2024/03/12 03:07:32;;;;;;;27.58;21.17;;;11.40;79.70;;;;;;4989697;28;20034;-34
2024/03/12 03:09:58;;;;;;;30.38;21.90;;;11.40;79.70;;;;;;4994762;28;20106;-32
2024/03/12 03:12:25;;;;;;;27.02;20.33;;;11.40;79.70;;;;;;4989109;28;20116;-34
2024/03/12 03:14:52;;;;;;;28.85;20.90;;;11.40;79.70;;;;;;4999391;28;20052;-31
2024/03/12 03:17:18;;;;;;;27.95;20.80;;;11.40;79.70;;;;;;4988554;28;20026;-36
2024/03/12 03:19:44;;;;;;;29.77;21.08;;;11.40;79.70;;;;;;4996702;28;20090;-38
2024/03/12 03:22:09;;;;;;;28.65;21.27;;;11.40;79.70;;;;;;4993189;28;20058;-34
2024/03/12 03:24:37;;;;;;;28.25;20.40;;;11.40;79.70;;;;;;4985905;28;20027;-36
2024/03/12 03:27:07;;;;;;;28.08;20.42;;;11.40;79.70;;;;;;5007991;28;20030;-36
2024/03/12 03:29:35;;;;;;;27.33;20.33;;;11.40;79.70;;;;;;4980944;28;20562;-38
2024/03/12 03:32:02;;;;;;;28.15;21.10;;;11.40;80.30;;;;;;4991437;28;20074;-34
2024/03/12 03:34:29;;;;;;;26.42;20.23;;;11.40;79.70;;;;;;4993779;28;20027;-38
2024/03/12 03:36:58;;;;;;;26.83;20.60;;;11.40;79.70;;;;;;4992177;28;20050;-36
2024/03/12 03:39:26;;;;;;;29.25;21.25;;;11.40;79.70;;;;;;4997534;28;20094;-35
2024/03/12 03:41:55;;;;;;;27.23;19.85;;;11.40;79.70;;;;;;4993226;28;20026;-34
2024/03/12 03:44:22;;;;;;;26.95;19.58;;;11.40;79.70;;;;;;4988942;28;20077;-35
2024/03/12 03:46:48;;;;;;;26.75;20.33;;;11.40;79.70;;;;;;5003434;28;20510;-33
2024/03/12 03:49:14;;;;;;;29.17;20.45;;;11.40;79.70;;;;;;4998582;28;20102;-31
2024/03/12 03:51:41;;;;;;;25.00;17.95;;;11.40;79.70;;;;;;4979705;28;20274;-36
2024/03/12 03:54:09;;;;;;;24.70;19.23;;;11.40;79.70;;;;;;4996111;28;20033;-35
2024/03/12 03:56:35;;;;;;;24.33;19.10;;;11.40;79.70;;;;;;4997246;28;20066;-37
2024/03/12 03:59:01;;;;;;;26.33;19.60;;;11.40;79.70;;;;;;4996156;28;20106;-38
2024/03/12 04:01:30;;;;;;;26.02;19.38;;;11.40;79.70;;;;;;4983946;28;20121;-37
2024/03/12 04:03:57;;;;;;;24.85;20.08;;;11.40;79.70;;;;;;4995695;28;20031;-33
2024/03/12 04:06:23;;;;;;;25.75;19.70;;;11.40;79.70;;;;;;4990943;28;20026;-37
2024/03/12 04:08:50;;;;;;;24.23;18.80;;;11.40;79.70;;;;;;4993074;28;20038;-36
2024/03/12 04:11:18;;;;;;;22.55;17.92;;;11.40;79.70;;;;;;4983190;28;20022;-37
2024/03/12 04:13:44;;;;;;;22.90;17.95;;;11.40;79.70;;;;;;4987093;28;20034;-38
2024/03/12 04:16:10;;;;;;;22.75;17.42;;;11.40;79.70;;;;;;4995363;28;20025;-38
2024/03/12 04:18:36;;;;;;;23.48;18.05;;;11.40;79.70;;;;;;4996722;28;20451;-35
2024/03/12 04:21:02;;;;;;;20.90;16.90;;;11.40;79.70;;;;;;4978047;28;20034;-36
2024/03/12 04:23:27;;;;;;;23.98;17.63;;;11.40;79.70;;;;;;4980297;28;20026;-36
2024/03/12 04:25:53;;;;;;;21.67;17.30;;;11.40;79.70;;;;;;4992100;28;20022;-36
2024/03/12 04:28:19;;;;;;;21.58;17.27;;;11.40;79.70;;;;;;4996099;28;20109;-37
2024/03/12 04:30:46;;;;;;;22.42;17.95;;;11.40;79.70;;;;;;4998209;28;20049;-32
2024/03/12 04:33:11;;;;;;;22.52;16.35;;;11.40;79.70;;;;;;5005658;28;20019;-35
2024/03/12 04:35:38;;;;;;;24.15;16.75;;;11.40;79.70;;;;;;4991445;28;20054;-34
2024/03/12 04:38:03;;;;;;;20.48;15.82;;;11.40;79.70;;;;;;5005291;28;20018;-34
2024/03/12 04:40:29;;;;;;;19.45;16.27;;;11.40;79.70;;;;;;5002352;28;20029;-35
2024/03/12 04:42:55;;;;;;;21.98;16.63;;;11.40;79.70;;;;;;5003733;28;20294;-34
2024/03/12 04:45:21;;;;;;;19.98;15.73;;;11.40;79.70;;;;;;4985312;28;20498;-35
2024/03/12 04:47:47;;;;;;;19.63;15.68;;;11.40;79.70;;;;;;5001060;28;20062;-35
2024/03/12 04:50:15;;;;;;;19.35;15.23;;;11.40;79.70;;;;;;5003293;28;20042;-36
2024/03/12 04:52:41;;;;;;;19.45;15.80;;;11.40;79.70;;;;;;4997570;28;20077;-36
2024/03/12 04:55:07;;;;;;;21.40;15.90;;;11.40;79.70;;;;;;4999881;28;20022;-36
2024/03/12 04:57:35;;;;;;;19.85;15.90;;;11.40;79.70;;;;;;4996597;28;20038;-34
2024/03/12 05:00:01;;;;;;;21.33;15.68;;;11.40;79.70;;;;;;4992296;28;20022;-38
2024/03/12 05:02:27;;;;;;;20.17;14.75;;;11.40;79.70;;;;;;4998179;28;20045;-35
2024/03/12 05:04:52;;;;;;;18.58;15.23;;;11.40;79.70;;;;;;5000312;28;20378;-38
2024/03/12 05:07:18;;;;;;;19.85;15.13;;;11.40;79.70;;;;;;5003071;28;20026;-34
2024/03/12 05:09:44;;;;;;;19.38;14.95;;;11.40;79.70;;;;;;4999035;28;20497;-36
2024/03/12 05:12:10;;;;;;;18.67;14.55;;;11.40;79.70;;;;;;4993799;28;20043;-36
2024/03/12 05:14:36;;;;;;;17.98;14.68;;;11.40;79.70;;;;;;4996299;28;20031;-35
2024/03/12 05:17:02;;;;;;;20.35;14.75;;;11.40;79.70;;;;;;5004594;28;20026;-38
2024/03/12 05:19:28;;;;;;;19.73;15.70;;;11.40;79.70;;;;;;5004969;28;20069;-36
2024/03/12 05:21:54;;;;;;;18.42;14.75;;;11.40;79.70;;;;;;5000401;28;20400;-35
2024/03/12 05:24:20;;;;;;;18.70;13.93;;;11.40;79.80;;;;;;5002532;28;20471;-37
2024/03/12 05:26:49;;;;;;;18.85;14.82;;;11.40;79.70;;;;;;5007119;28;20026;-35
2024/03/12 05:29:15;;;;;;;19.23;14.48;;;11.40;79.70;;;;;;5004841;28;20037;-35
2024/03/12 05:31:40;;;;;;;19.65;14.38;;;11.40;79.70;;;;;;4999084;28;20026;-37
2024/03/12 05:34:15;;;;;;;19.20;13.88;;;11.40;79.70;;;;;;4999453;28;20038;-36
2024/03/12 05:36:47;;;;;;;19.48;13.88;;;11.40;79.70;;;;;;5005976;28;20037;-36
2024/03/12 05:39:26;;;;;;;20.98;14.18;;;11.40;79.70;;;;;;4999512;28;20030;-34
2024/03/12 05:50:11;;;;;;;18.23;13.70;;;11.40;79.80;;;;;;4994721;28;20482;-36
2024/03/12 05:52:37;;;;;;;19.40;13.27;;;11.40;79.80;;;;;;4986478;28;20026;-38
2024/03/12 05:55:04;;;;;;;19.67;13.57;;;11.30;79.70;;;;;;5001465;28;20037;-38
2024/03/12 05:57:33;;;;;;;16.90;12.52;;;11.30;79.70;;;;;;5000955;28;20018;-33
2024/03/12 06:00:00;;;;;;;19.70;13.85;;;11.30;79.80;;;;;;4998269;28;20045;-35
2024/03/12 06:02:26;;;;;;;19.30;13.88;;;11.30;79.80;;;;;;4995516;28;20035;-36
2024/03/12 06:04:52;;;;;;;19.35;13.57;;;11.30;79.80;;;;;;5001058;28;20018;-38
2024/03/12 06:07:18;;;;;;;20.17;14.70;;;11.30;79.70;;;;;;4999266;28;20113;-35
2024/03/12 06:09:44;;;;;;;21.33;13.35;;;11.30;79.70;;;;;;4999758;28;20046;-32
2024/03/12 06:12:10;;;;;;;19.73;13.73;;;11.30;79.70;;;;;;4978315;28;20035;-37
2024/03/12 06:14:36;;;;;;;22.80;14.65;;;11.30;79.70;;;;;;4996914;28;20026;-34
2024/03/12 06:17:01;;;;;;;20.30;14.52;;;11.30;79.70;;;;;;4999958;28;20421;-35
2024/03/12 06:19:27;;;;;;;19.95;13.73;;;11.30;79.70;;;;;;4992643;28;20081;-37
2024/03/12 06:21:53;;;;;;;22.08;15.30;;;11.30;79.70;;;;;;4996160;28;20050;-37
2024/03/12 06:24:19;;;;;;;20.40;14.35;;;11.30;79.70;;;;;;5002688;28;20660;-32
2024/03/12 06:26:44;;;;;;;18.90;13.80;;;11.30;79.70;;;;;;5001147;28;20044;-35
2024/03/12 06:29:10;;;;;;;20.67;13.50;;;11.30;79.70;;;;;;4990340;28;20082;-34
2024/03/12 06:31:37;;;;;;;21.30;14.18;;;11.30;79.70;;;;;;5001735;28;20034;-34
2024/03/12 06:34:04;;;;;;;22.55;14.82;;;11.40;79.80;;;;;;4991973;28;20019;-39
2024/03/12 06:36:30;;;;;;;21.38;14.63;;;11.30;79.70;;;;;;5002491;28;20034;-34
2024/03/12 06:38:55;;;;;;;22.90;14.77;;;11.30;79.70;;;;;;5000317;28;20093;-35
2024/03/12 06:41:24;;;;;;;22.48;14.57;;;11.30;79.80;;;;;;5000884;28;20492;-37
2024/03/12 06:43:50;;;;;;;21.00;14.15;;;11.30;79.70;;;;;;5001837;28;20494;-33
2024/03/12 06:46:19;;;;;;;20.67;14.48;;;11.30;79.80;;;;;;4996803;28;20058;-36
2024/03/12 06:48:46;;;;;;;20.95;15.10;;;11.30;79.70;;;;;;4993503;28;20043;-37
2024/03/12 06:51:12;;;;;;;21.08;14.98;;;11.30;79.70;;;;;;4987844;28;20077;-33
2024/03/12 06:53:38;;;;;;;22.23;14.60;;;11.30;79.70;;;;;;5002888;28;20015;-34
2024/03/12 06:56:05;;;;;;;21.45;14.60;;;11.30;79.70;;;;;;4999422;28;20025;-38
2024/03/12 06:58:31;;;;;;;20.20;13.68;;;11.30;79.80;;;;;;4999594;28;20029;-34
2024/03/12 07:00:58;;;;;;;20.90;14.10;;;11.30;79.70;;;;;;4990619;28;20058;-35
2024/03/12 07:03:24;;;;;;;21.08;14.05;;;11.30;79.80;;;;;;4983461;28;20503;-36
2024/03/12 07:05:50;;;;;;;23.05;14.07;;;11.30;79.70;;;;;;4997932;28;20454;-36
2024/03/12 07:08:17;;;;;;;21.27;14.30;;;11.30;79.70;;;;;;4995969;28;20037;-37
2024/03/12 07:10:43;;;;;;;21.92;14.73;;;11.30;79.70;;;;;;4999373;28;20097;-34
2024/03/12 07:13:10;;;;;;;23.10;13.57;;;11.30;79.80;;;;;;4991153;28;20106;-36
2024/03/12 07:15:39;;;;;;;20.65;13.00;;;11.30;79.70;;;;;;4998405;28;20034;-33
2024/03/12 07:18:06;;;;;;;19.13;13.80;;;11.30;79.80;;;;;;4995053;28;20076;-35
2024/03/12 07:20:35;;;;;;;23.55;14.38;;;11.30;79.80;;;;;;4990237;28;20031;-32
2024/03/12 07:23:01;;;;;;;20.23;13.98;;;11.30;79.80;;;;;;4983233;28;20038;-34
2024/03/12 07:25:27;;;;;;;21.88;13.80;;;11.30;79.80;;;;;;4987364;28;20023;-33
2024/03/12 07:27:54;;;;;;;21.52;14.05;;;11.30;79.80;;;;;;5001495;28;20041;-36
2024/03/12 07:30:24;;;;;;;19.20;13.85;;;11.30;79.80;;;;;;4994912;28;20054;-36
2024/03/12 07:32:51;;;;;;;21.77;13.70;;;11.30;79.80;;;;;;4983412;28;20034;-36
2024/03/12 07:35:17;;;;;;;18.85;12.88;;;11.30;79.80;;;;;;4994926;28;20041;-37
2024/03/12 07:37:44;;;;;;;20.45;14.07;;;11.30;79.80;;;;;;4994898;28;20054;-34
2024/03/12 07:40:11;;;;;;;20.15;12.30;;;11.30;79.80;;;;;;4989725;28;20038;-34
2024/03/12 07:42:38;;;;;;;21.98;14.07;;;11.30;79.80;;;;;;4982994;28;20391;-32
2024/03/12 07:45:05;;;;;;;23.65;13.80;;;11.30;79.80;;;;;;4992297;28;20034;-32
2024/03/12 07:47:32;;;;;;;23.38;13.55;;;11.30;79.80;;;;;;5009917;28;20023;-37
2024/03/12 07:49:57;;;;;;;19.17;12.73;;;11.30;79.80;;;;;;4994427;28;20032;-35
2024/03/12 07:52:24;;;;;;;19.48;13.15;;;11.30;79.80;;;;;;4984119;28;20106;-36
2024/03/12 07:54:50;;;;;;;18.60;12.57;;;11.30;79.80;;;;;;4988771;28;20046;-40
2024/03/12 07:57:18;;;;;;;19.00;12.57;;;11.30;79.80;;;;;;4999600;28;20042;-35
2024/03/12 07:59:46;;;;;;;20.67;13.23;;;11.30;79.80;;;;;;4987584;28;20022;-36
2024/03/12 08:02:15;;;;;;;18.50;12.50;;;11.30;79.80;;;;;;5002116;28;20088;-39
2024/03/12 08:04:44;;;;;;;19.15;12.63;;;11.30;79.80;;;;;;4984571;28;20030;-39
2024/03/12 08:07:11;;;;;;;17.30;11.98;;;11.20;79.80;;;;;;4996564;28;20066;-36
2024/03/12 08:09:37;;;;;;;18.70;12.07;;;11.30;79.80;;;;;;4986168;28;20540;-36
2024/03/12 08:12:04;;;;;;;17.85;12.52;;;11.30;79.80;;;;;;4984075;28;20068;-38
2024/03/12 08:14:32;;;;;;;18.98;13.23;;;11.30;79.80;;;;;;5001414;28;20026;-36
2024/03/12 08:16:58;;;;;;;18.00;12.35;;;11.30;79.80;;;;;;5009289;28;20026;-34
2024/03/12 08:19:25;;;;;;;18.40;12.18;;;11.30;79.80;;;;;;4998024;28;20078;-33
2024/03/12 08:21:54;;;;;;;15.38;12.13;;;11.30;79.80;;;;;;4986898;28;20105;-38
2024/03/12 08:24:19;;;;;;;17.35;12.38;;;11.30;79.80;;;;;;5001880;28;20042;-35
2024/03/12 08:26:45;;;;;;;18.77;12.57;;;11.30;79.80;;;;;;5008919;28;20295;-36
2024/03/12 08:29:14;;;;;;;18.48;12.07;;;11.30;79.80;;;;;;4988805;28;20049;-35
2024/03/12 08:31:40;;;;;;;19.50;12.50;;;11.30;79.80;;;;;;4988694;28;20031;-31
2024/03/12 08:34:15;;;;;;;18.58;12.38;;;11.30;79.80;;;;;;4993084;28;20074;-32
2024/03/12 08:36:41;;;;;;;;;;;11.30;79.80;;;;;;5000877;28;20110;-32
2024/03/12 08:39:07;;;;;;;16.20;11.07;;;11.20;79.70;;;;;;4982616;28;19977;-35
2024/03/12 08:41:34;;;;;;;18.80;12.15;;;11.30;79.70;;;;;;4992553;28;20068;-38
2024/03/12 08:44:00;;;;;;;16.30;12.13;;;11.30;79.80;;;;;;4981481;28;20111;-38
2024/03/12 08:46:28;;;;;;;16.45;11.80;;;11.30;79.90;;;;;;4997299;28;20326;-32
2024/03/12 08:48:54;;;;;;;18.08;11.93;;;11.30;79.80;;;;;;5006082;28;20070;-35
2024/03/12 08:51:19;;;;;;;17.55;12.90;;;11.30;79.80;;;;;;5000184;28;20034;-35
2024/03/12 08:53:46;;;;;;;18.27;12.63;;;11.30;79.80;;;;;;4999941;28;20030;-37
2024/03/12 08:56:12;;;;;;;18.10;12.90;;;11.30;79.90;;;;;;5000051;28;20026;-33
2024/03/12 08:58:38;;;;;;;18.08;12.48;;;11.30;79.90;;;;;;4990509;28;20029;-33
2024/03/12 09:01:04;;;;;;;20.40;12.32;;;11.30;79.90;;;;;;4980880;28;20379;-34
2024/03/12 09:03:30;;;;;;;17.17;11.70;;;11.30;79.80;;;;;;4990917;28;20540;-33
2024/03/12 09:05:56;;;;;;;17.85;12.70;;;11.30;79.80;;;;;;5001336;28;20069;-35
2024/03/12 09:08:24;;;;;;;15.98;12.70;;;11.30;79.80;;;;;;5000419;28;20030;-37
2024/03/12 09:10:50;;;;;;;17.67;12.82;;;11.30;79.80;;;;;;4984146;28;20360;-35
2024/03/12 09:13:19;;;;;;;18.70;13.00;;;11.30;79.80;;;;;;4975811;28;20033;-37
2024/03/12 09:15:48;;;;;;;17.05;11.93;;;11.30;79.90;;;;;;4977236;28;20027;-36
2024/03/12 09:18:18;;;;;;;18.35;12.25;;;11.30;79.80;;;;;;4993479;28;20037;-35
2024/03/12 09:20:46;;;;;;;16.30;11.18;;;11.30;79.80;;;;;;5004892;28;20034;-36
2024/03/12 09:23:13;;;;;;;15.50;11.80;;;11.40;79.90;;;;;;4998673;28;20062;-34
2024/03/12 09:25:41;;;;;;;15.57;11.38;;;11.40;79.90;;;;;;4992362;28;20023;-34
2024/03/12 09:28:07;;;;;;;15.98;11.60;;;11.40;79.90;;;;;;4999071;28;20090;-37
2024/03/12 09:30:34;;;;;;;15.98;11.90;;;11.40;79.80;;;;;;5001074;28;20022;-34
2024/03/12 09:33:00;;;;;;;17.02;12.02;;;11.40;79.90;;;;;;5007515;28;20061;-38
2024/03/12 09:35:27;;;;;;;15.30;11.05;;;11.40;80.40;;;;;;4999506;28;20019;-37
2024/03/12 09:37:53;;;;;;;15.82;11.57;;;11.40;79.80;;;;;;5003616;28;20041;-35
2024/03/12 09:40:19;;;;;;;17.52;11.73;;;11.40;79.90;;;;;;5000403;28;20026;-39
2024/03/12 09:42:47;;;;;;;16.27;12.23;;;11.40;79.90;;;;;;4991623;28;20022;-38
2024/03/12 09:45:13;;;;;;;17.05;12.43;;;11.40;79.80;;;;;;5004602;28;20058;-38
2024/03/12 09:47:44;;;;;;;18.45;11.73;;;11.40;79.80;;;;;;5013106;28;20018;-40
2024/03/12 09:50:11;;;;;;;16.95;11.43;;;11.40;79.80;;;;;;4991710;28;20118;-34
2024/03/12 09:52:41;;;;;;;16.00;11.13;;;11.40;79.80;;;;;;4991545;28;20042;-34
2024/03/12 09:55:13;;;;;;;14.95;11.15;;;11.40;79.80;;;;;;4986205;28;20576;-37
2024/03/12 09:57:44;;;;;;;16.58;11.68;;;11.40;79.80;;;;;;4997924;28;20390;-35
2024/03/12 10:00:22;;;;;;;15.57;11.23;;;11.40;79.80;;;;;;4999637;28;20031;-33
2024/03/12 10:02:51;;;;;;;15.85;11.10;;;11.50;79.90;;;;;;4985042;28;20050;-39
2024/03/12 10:05:25;;;;;;;13.25;10.48;;;11.50;79.90;;;;;;4990406;28;20125;-37
2024/03/12 10:08:07;;;;;;;14.95;10.40;;;11.50;79.90;;;;;;4990385;28;20031;-34
2024/03/12 10:10:39;;;;;;;15.43;10.50;;;11.50;79.90;;;;;;4998115;28;20103;-37
2024/03/12 10:13:05;;;;;;;14.93;10.75;;;11.40;79.80;;;;;;4993070;28;20118;-35
2024/03/12 10:15:33;;;;;;;13.23;10.50;;;11.40;79.90;;;;;;5004618;28;20022;-38
2024/03/12 10:17:59;;;;;;;15.73;10.77;;;11.40;79.80;;;;;;4994100;28;20034;-38
2024/03/12 10:20:26;;;;;;;15.02;10.55;;;11.50;79.90;;;;;;4980207;28;20039;-37
2024/03/12 10:23:09;;;;;;;14.50;10.45;;;11.50;79.90;;;;;;5001361;28;20379;-34
2024/03/12 10:25:36;;;;;;;15.07;10.90;;;11.50;79.90;;;;;;4992562;28;20062;-38
2024/03/12 10:28:05;;;;;;;13.20;10.52;;;11.50;79.90;;;;;;4988192;28;20031;-37
2024/03/12 10:30:31;;;;;;;14.68;11.02;;;11.50;79.90;;;;;;4999919;28;20018;-39
2024/03/12 10:32:57;;;;;;;14.40;10.05;;;11.50;79.80;;;;;;4992940;28;20057;-35
2024/03/12 10:35:23;;;;;;;14.15;10.27;;;11.50;80.50;;;;;;4982245;28;20023;-36
2024/03/12 10:37:51;;;;;;;13.77;10.70;;;11.50;79.80;;;;;;5001658;28;20026;-39
2024/03/12 10:40:19;;;;;;;15.07;11.27;;;11.50;79.80;;;;;;5002996;28;20036;-38
2024/03/12 10:43:00;;;;;;;13.95;10.50;;;11.50;79.80;;;;;;4989933;28;20201;-35
2024/03/12 10:45:29;;;;;;;13.25;10.55;;;11.60;79.90;;;;;;4991651;28;20137;-37
2024/03/12 10:47:59;;;;;;;13.48;10.15;;;11.60;79.80;;;;;;5002110;28;20582;-36
2024/03/12 10:50:25;;;;;;;15.30;10.90;;;11.60;79.80;;;;;;4997006;28;20027;-40
2024/03/12 10:52:54;;;;;;;17.98;11.80;;;11.60;79.80;;;;;;4992135;28;20471;-36
2024/03/12 10:55:21;;;;;;;15.02;10.65;;;11.60;79.80;;;;;;5001208;28;20026;-37
2024/03/12 10:58:06;;;;;;;15.32;11.02;;;11.60;79.80;;;;;;4989257;28;20037;-39
2024/03/12 11:00:35;;;;;;;14.85;10.75;;;11.70;79.80;;;;;;4982365;28;20454;-35
2024/03/12 11:03:02;;;;;;;14.95;10.07;;;11.60;79.70;;;;;;4994698;28;20107;-39
2024/03/12 11:05:28;;;;;;;13.77;9.93;;;11.60;79.70;;;;;;4975260;28;20065;-37
2024/03/12 11:07:58;;;;;;;15.35;10.80;;;11.60;79.70;;;;;;5000060;28;20027;-38
2024/03/12 11:10:28;;;;;;;15.57;11.38;;;11.70;79.80;;;;;;4991127;28;20514;-33
2024/03/12 11:12:55;;;;;;;13.85;10.80;;;11.70;79.80;;;;;;4978338;28;20046;-36
2024/03/12 11:15:23;;;;;;;15.35;10.75;;;11.70;79.80;;;;;;4950560;28;20027;-36
2024/03/12 11:17:50;;;;;;;15.48;11.57;;;11.70;79.70;;;;;;4981790;28;20054;-35
2024/03/12 11:20:18;;;;;;;14.90;11.57;;;11.70;79.70;;;;;;4968443;28;20066;-38
2024/03/12 11:22:45;;;;;;;14.95;11.27;;;11.70;79.70;;;;;;4971493;28;20456;-37
2024/03/12 11:25:15;;;;;;;15.57;11.50;;;11.70;79.70;;;;;;4978246;28;20018;-33
2024/03/12 11:27:43;;;;;;;15.27;11.98;;;11.70;79.70;;;;;;4981413;28;20031;-35
2024/03/12 11:30:11;;;;;;;15.93;11.38;;;11.80;79.70;;;;;;4971011;28;20038;-35
2024/03/12 11:32:41;;;;;;;15.80;11.18;;;11.80;79.70;;;;;;4981549;28;20124;-36
2024/03/12 11:35:16;;;;;;;14.00;10.90;;;11.80;79.70;;;;;;4980828;28;20399;-33
2024/03/12 11:38:01;;;;;;;16.08;11.77;;;11.80;79.60;;;;;;4986399;28;20518;-35
2024/03/12 11:40:37;;;;;;;16.08;11.95;;;11.80;79.60;;;;;;4970550;28;20031;-36
2024/03/12 11:43:03;;;;;;;14.45;10.68;;;11.80;79.60;;;;;;4981030;28;20047;-38
2024/03/12 11:45:46;;;;;;;15.32;10.90;;;11.80;79.60;;;;;;4979229;28;20047;-39
2024/03/12 11:48:21;;;;;;;13.77;10.75;;;11.80;79.50;;;;;;4984696;28;20074;-35
2024/03/12 11:50:59;;;;;;;15.30;11.20;;;11.80;79.50;;;;;;4962567;28;20073;-38
2024/03/12 11:53:29;;;;;;;16.15;11.55;;;11.90;79.50;;;;;;4974741;28;20019;-38
2024/03/12 11:56:10;;;;;;;16.23;11.68;;;11.90;79.50;;;;;;4966051;28;20027;-37
2024/03/12 11:58:46;;;;;;;16.85;11.95;;;11.90;79.50;;;;;;4964056;28;20042;-38
2024/03/12 12:01:21;;;;;;;15.82;11.63;;;11.90;79.50;;;;;;4961744;28;20023;-33
2024/03/12 12:03:59;;;;;;;15.05;10.82;;;11.90;79.50;;;;;;4964014;28;20503;-36
2024/03/12 12:06:30;;;;;;;15.00;11.32;;;12.00;79.50;;;;;;4969520;28;20085;-37
2024/03/12 12:09:05;;;;;;;14.52;10.57;;;11.90;79.50;;;;;;4979930;28;20049;-36
2024/03/12 12:11:32;;;;;;;13.45;10.63;;;12.00;79.50;;;;;;4979419;28;20089;-37
2024/03/12 12:13:59;;;;;;;14.82;11.38;;;11.90;79.40;;;;;;4972338;28;20027;-34
2024/03/12 12:16:25;;;;;;;14.57;10.38;;;12.00;79.50;;;;;;4974416;28;20027;-38
2024/03/12 12:18:51;;;;;;;15.43;11.60;;;12.00;79.50;;;;;;4970420;28;20033;-36
2024/03/12 12:21:18;;;;;;;15.57;11.57;;;12.00;79.50;;;;;;4969741;28;20476;-38
2024/03/12 12:23:46;;;;;;;14.95;11.05;;;12.00;79.50;;;;;;4968248;28;20022;-37
2024/03/12 12:26:18;;;;;;;16.17;11.93;;;12.00;79.50;;;;;;4974274;28;20028;-37
2024/03/12 12:28:52;;;;;;;15.48;11.77;;;12.00;79.40;;;;;;4984091;28;20041;-37
2024/03/12 12:31:19;;;;;;;17.60;11.77;;;12.10;79.40;;;;;;4979843;28;20033;-37
2024/03/12 12:33:55;;;;;;;16.10;11.93;;;12.10;79.40;;;;;;4968792;28;20052;-40
2024/03/12 12:36:27;;;;;;;16.30;11.52;;;12.10;79.40;;;;;;4979841;28;20080;-37
2024/03/12 12:38:54;;;;;;;16.08;11.10;;;12.10;79.40;;;;;;4962452;28;20147;-36